Terminal Aerodrome Forecast
Issued by NWS

Home | Current Version | Previous Version | Text Only | Print | Product List | Glossary On
Versions: 1 2 3 4 5 6 7 8 9 10 11 12 13 14 15 16 17 18 19 20
000
FTUS43 KJKL 020758 AAA
TAFSME
TAF AMD
KSME 020758Z 0208/0306 VRB03KT P6SM VCSH BKN015
     FM020900 VRB03KT 6SM BR VCSH OVC010
     FM021300 23008KT P6SM VCTS SCT015 BKN030CB
     FM030200 VRB03KT 3SM BR VCSH BKN015=

USA.gov is the U.S. government's official web portal to all federal, state and local government web resources and services.